sensor_id;sensor_type;location;lat;lon;timestamp;P1;durP1;ratioP1;P2;durP2;ratioP2
30862;SDS011;17573;55.922;37.540;2023-07-13T00:01:43;4.28;;;3.72;;
30862;SDS011;17573;55.922;37.540;2023-07-13T00:04:09;7.10;;;3.95;;
30862;SDS011;17573;55.922;37.540;2023-07-13T00:06:34;4.60;;;4.15;;
30862;SDS011;17573;55.922;37.540;2023-07-13T00:09:00;10.48;;;4.53;;
30862;SDS011;17573;55.922;37.540;2023-07-13T00:11:27;5.65;;;4.68;;
30862;SDS011;17573;55.922;37.540;2023-07-13T00:13:53;9.73;;;4.20;;
30862;SDS011;17573;55.922;37.540;2023-07-13T00:16:19;8.02;;;3.65;;
30862;SDS011;17573;55.922;37.540;2023-07-13T00:18:45;7.75;;;4.05;;
30862;SDS011;17573;55.922;37.540;2023-07-13T00:21:11;7.07;;;4.85;;
30862;SDS011;17573;55.922;37.540;2023-07-13T00:23:38;7.95;;;4.45;;
30862;SDS011;17573;55.922;37.540;2023-07-13T00:26:06;4.95;;;4.13;;
30862;SDS011;17573;55.922;37.540;2023-07-13T00:28:33;8.63;;;3.75;;
30862;SDS011;17573;55.922;37.540;2023-07-13T00:31:00;5.25;;;4.10;;
30862;SDS011;17573;55.922;37.540;2023-07-13T00:33:27;8.23;;;4.07;;
30862;SDS011;17573;55.922;37.540;2023-07-13T00:35:57;5.38;;;4.10;;
30862;SDS011;17573;55.922;37.540;2023-07-13T00:38:23;5.75;;;3.95;;
30862;SDS011;17573;55.922;37.540;2023-07-13T00:40:49;8.30;;;3.92;;
30862;SDS011;17573;55.922;37.540;2023-07-13T00:43:18;4.50;;;3.85;;
30862;SDS011;17573;55.922;37.540;2023-07-13T00:48:13;7.78;;;4.45;;
30862;SDS011;17573;55.922;37.540;2023-07-13T00:50:41;7.43;;;4.72;;
30862;SDS011;17573;55.922;37.540;2023-07-13T00:53:08;8.75;;;4.47;;
30862;SDS011;17573;55.922;37.540;2023-07-13T00:55:34;9.18;;;4.55;;
30862;SDS011;17573;55.922;37.540;2023-07-13T00:58:00;6.93;;;4.57;;
30862;SDS011;17573;55.922;37.540;2023-07-13T01:00:27;6.57;;;4.45;;
30862;SDS011;17573;55.922;37.540;2023-07-13T01:02:55;13.75;;;4.85;;
30862;SDS011;17573;55.922;37.540;2023-07-13T01:05:22;5.55;;;3.80;;
30862;SDS011;17573;55.922;37.540;2023-07-13T01:07:50;7.32;;;3.85;;
30862;SDS011;17573;55.922;37.540;2023-07-13T01:10:17;6.70;;;3.67;;
30862;SDS011;17573;55.922;37.540;2023-07-13T01:12:45;8.88;;;4.25;;
30862;SDS011;17573;55.922;37.540;2023-07-13T01:15:33;5.25;;;3.78;;
30862;SDS011;17573;55.922;37.540;2023-07-13T01:18:05;5.93;;;4.53;;
30862;SDS011;17573;55.922;37.540;2023-07-13T01:20:32;5.43;;;4.80;;
30862;SDS011;17573;55.922;37.540;2023-07-13T01:23:05;10.02;;;3.95;;
30862;SDS011;17573;55.922;37.540;2023-07-13T01:25:34;9.57;;;4.63;;
30862;SDS011;17573;55.922;37.540;2023-07-13T01:28:01;12.23;;;4.90;;
30862;SDS011;17573;55.922;37.540;2023-07-13T01:30:28;7.85;;;4.35;;
30862;SDS011;17573;55.922;37.540;2023-07-13T01:32:54;11.93;;;4.90;;
30862;SDS011;17573;55.922;37.540;2023-07-13T01:35:20;9.90;;;4.40;;
30862;SDS011;17573;55.922;37.540;2023-07-13T01:37:46;5.43;;;4.88;;
30862;SDS011;17573;55.922;37.540;2023-07-13T01:40:14;7.45;;;4.03;;
30862;SDS011;17573;55.922;37.540;2023-07-13T01:42:40;8.45;;;4.22;;
30862;SDS011;17573;55.922;37.540;2023-07-13T01:45:06;6.47;;;4.32;;
30862;SDS011;17573;55.922;37.540;2023-07-13T01:47:32;5.80;;;4.30;;
30862;SDS011;17573;55.922;37.540;2023-07-13T01:49:58;4.72;;;4.20;;
30862;SDS011;17573;55.922;37.540;2023-07-13T01:52:24;5.10;;;3.80;;
30862;SDS011;17573;55.922;37.540;2023-07-13T01:54:50;9.95;;;3.38;;
30862;SDS011;17573;55.922;37.540;2023-07-13T01:57:16;10.00;;;4.28;;
30862;SDS011;17573;55.922;37.540;2023-07-13T01:59:42;4.45;;;3.95;;
30862;SDS011;17573;55.922;37.540;2023-07-13T02:02:08;7.60;;;4.25;;
30862;SDS011;17573;55.922;37.540;2023-07-13T02:04:34;12.60;;;5.38;;
30862;SDS011;17573;55.922;37.540;2023-07-13T02:07:02;4.22;;;3.58;;
30862;SDS011;17573;55.922;37.540;2023-07-13T02:09:28;10.43;;;5.10;;
30862;SDS011;17573;55.922;37.540;2023-07-13T02:11:54;5.78;;;4.50;;
30862;SDS011;17573;55.922;37.540;2023-07-13T02:14:20;11.07;;;4.63;;
30862;SDS011;17573;55.922;37.540;2023-07-13T02:16:46;7.10;;;5.72;;
30862;SDS011;17573;55.922;37.540;2023-07-13T02:19:14;8.60;;;5.05;;
30862;SDS011;17573;55.922;37.540;2023-07-13T02:21:40;5.82;;;4.30;;
30862;SDS011;17573;55.922;37.540;2023-07-13T02:24:06;5.20;;;3.75;;
30862;SDS011;17573;55.922;37.540;2023-07-13T02:26:32;8.70;;;4.55;;
30862;SDS011;17573;55.922;37.540;2023-07-13T02:28:57;5.53;;;4.07;;
30862;SDS011;17573;55.922;37.540;2023-07-13T02:31:23;9.75;;;4.45;;
30862;SDS011;17573;55.922;37.540;2023-07-13T02:33:49;4.68;;;4.00;;
30862;SDS011;17573;55.922;37.540;2023-07-13T02:36:16;4.93;;;4.00;;
30862;SDS011;17573;55.922;37.540;2023-07-13T02:38:44;6.75;;;4.30;;
30862;SDS011;17573;55.922;37.540;2023-07-13T02:41:10;6.38;;;4.57;;
30862;SDS011;17573;55.922;37.540;2023-07-13T02:43:38;7.57;;;4.15;;
30862;SDS011;17573;55.922;37.540;2023-07-13T02:46:08;4.80;;;3.83;;
30862;SDS011;17573;55.922;37.540;2023-07-13T02:48:35;16.45;;;5.25;;
30862;SDS011;17573;55.922;37.540;2023-07-13T02:51:02;5.88;;;4.07;;
30862;SDS011;17573;55.922;37.540;2023-07-13T02:53:29;7.88;;;4.28;;
30862;SDS011;17573;55.922;37.540;2023-07-13T02:55:54;9.80;;;4.00;;
30862;SDS011;17573;55.922;37.540;2023-07-13T02:58:20;7.85;;;4.78;;
30862;SDS011;17573;55.922;37.540;2023-07-13T03:00:46;4.47;;;3.95;;
30862;SDS011;17573;55.922;37.540;2023-07-13T03:03:14;6.18;;;4.38;;
30862;SDS011;17573;55.922;37.540;2023-07-13T03:05:42;9.80;;;4.32;;
30862;SDS011;17573;55.922;37.540;2023-07-13T03:08:11;7.90;;;4.28;;
30862;SDS011;17573;55.922;37.540;2023-07-13T03:10:38;5.85;;;3.97;;
30862;SDS011;17573;55.922;37.540;2023-07-13T03:13:07;5.97;;;3.78;;
30862;SDS011;17573;55.922;37.540;2023-07-13T03:15:33;8.02;;;4.35;;
30862;SDS011;17573;55.922;37.540;2023-07-13T03:17:59;8.07;;;4.25;;
30862;SDS011;17573;55.922;37.540;2023-07-13T03:20:25;13.48;;;5.45;;
30862;SDS011;17573;55.922;37.540;2023-07-13T03:22:51;6.53;;;4.15;;
30862;SDS011;17573;55.922;37.540;2023-07-13T03:25:18;6.13;;;4.43;;
30862;SDS011;17573;55.922;37.540;2023-07-13T03:27:45;5.55;;;4.40;;
30862;SDS011;17573;55.922;37.540;2023-07-13T03:30:11;5.15;;;4.45;;
30862;SDS011;17573;55.922;37.540;2023-07-13T03:32:37;7.80;;;5.05;;
30862;SDS011;17573;55.922;37.540;2023-07-13T03:35:04;6.03;;;4.47;;
30862;SDS011;17573;55.922;37.540;2023-07-13T03:37:31;12.43;;;4.97;;
30862;SDS011;17573;55.922;37.540;2023-07-13T03:39:57;9.38;;;4.38;;
30862;SDS011;17573;55.922;37.540;2023-07-13T03:42:25;6.80;;;4.55;;
30862;SDS011;17573;55.922;37.540;2023-07-13T03:44:51;5.70;;;3.95;;
30862;SDS011;17573;55.922;37.540;2023-07-13T03:47:18;9.48;;;4.88;;
30862;SDS011;17573;55.922;37.540;2023-07-13T03:49:45;13.73;;;5.30;;
30862;SDS011;17573;55.922;37.540;2023-07-13T03:52:12;7.32;;;4.53;;
30862;SDS011;17573;55.922;37.540;2023-07-13T03:54:38;4.88;;;3.45;;
30862;SDS011;17573;55.922;37.540;2023-07-13T03:57:05;9.52;;;4.63;;
30862;SDS011;17573;55.922;37.540;2023-07-13T03:59:34;7.30;;;4.47;;
30862;SDS011;17573;55.922;37.540;2023-07-13T04:02:00;7.60;;;4.28;;
30862;SDS011;17573;55.922;37.540;2023-07-13T04:04:26;7.90;;;3.67;;
30862;SDS011;17573;55.922;37.540;2023-07-13T04:06:52;9.77;;;5.35;;
30862;SDS011;17573;55.922;37.540;2023-07-13T04:09:18;16.65;;;4.97;;
30862;SDS011;17573;55.922;37.540;2023-07-13T04:11:44;6.38;;;4.63;;
30862;SDS011;17573;55.922;37.540;2023-07-13T04:14:10;9.68;;;4.85;;
30862;SDS011;17573;55.922;37.540;2023-07-13T04:16:36;8.07;;;3.75;;
30862;SDS011;17573;55.922;37.540;2023-07-13T04:19:02;7.20;;;4.38;;
30862;SDS011;17573;55.922;37.540;2023-07-13T04:21:28;7.70;;;3.90;;
30862;SDS011;17573;55.922;37.540;2023-07-13T04:23:55;9.00;;;4.65;;
30862;SDS011;17573;55.922;37.540;2023-07-13T04:26:21;10.20;;;4.03;;
30862;SDS011;17573;55.922;37.540;2023-07-13T04:28:48;11.50;;;3.95;;
30862;SDS011;17573;55.922;37.540;2023-07-13T04:31:15;4.70;;;3.83;;
30862;SDS011;17573;55.922;37.540;2023-07-13T04:33:41;9.68;;;4.25;;
30862;SDS011;17573;55.922;37.540;2023-07-13T04:36:08;5.65;;;4.30;;
30862;SDS011;17573;55.922;37.540;2023-07-13T04:38:35;4.40;;;4.00;;
30862;SDS011;17573;55.922;37.540;2023-07-13T04:41:02;8.50;;;4.53;;
30862;SDS011;17573;55.922;37.540;2023-07-13T04:43:30;9.82;;;4.80;;
30862;SDS011;17573;55.922;37.540;2023-07-13T04:45:56;21.17;;;6.43;;
30862;SDS011;17573;55.922;37.540;2023-07-13T04:48:23;9.15;;;4.22;;
30862;SDS011;17573;55.922;37.540;2023-07-13T04:50:56;5.60;;;4.55;;
30862;SDS011;17573;55.922;37.540;2023-07-13T04:53:22;7.55;;;4.22;;
30862;SDS011;17573;55.922;37.540;2023-07-13T04:55:49;5.10;;;4.10;;
30862;SDS011;17573;55.922;37.540;2023-07-13T04:58:15;6.63;;;4.25;;
30862;SDS011;17573;55.922;37.540;2023-07-13T05:00:41;5.57;;;5.05;;
30862;SDS011;17573;55.922;37.540;2023-07-13T05:03:07;8.60;;;4.43;;
30862;SDS011;17573;55.922;37.540;2023-07-13T05:05:32;9.43;;;4.22;;
30862;SDS011;17573;55.922;37.540;2023-07-13T05:07:59;13.25;;;4.25;;
30862;SDS011;17573;55.922;37.540;2023-07-13T05:10:25;7.07;;;4.35;;
30862;SDS011;17573;55.922;37.540;2023-07-13T05:12:51;5.35;;;4.65;;
30862;SDS011;17573;55.922;37.540;2023-07-13T05:15:17;6.05;;;4.22;;
30862;SDS011;17573;55.922;37.540;2023-07-13T05:17:49;5.55;;;5.05;;
30862;SDS011;17573;55.922;37.540;2023-07-13T05:20:16;9.13;;;4.03;;
30862;SDS011;17573;55.922;37.540;2023-07-13T05:22:43;9.40;;;4.60;;
30862;SDS011;17573;55.922;37.540;2023-07-13T05:25:09;8.40;;;3.65;;
30862;SDS011;17573;55.922;37.540;2023-07-13T05:27:35;13.10;;;4.88;;
30862;SDS011;17573;55.922;37.540;2023-07-13T05:30:02;6.25;;;4.20;;
30862;SDS011;17573;55.922;37.540;2023-07-13T05:32:31;9.30;;;4.70;;
30862;SDS011;17573;55.922;37.540;2023-07-13T05:34:58;4.75;;;4.25;;
30862;SDS011;17573;55.922;37.540;2023-07-13T05:37:24;7.53;;;4.72;;
30862;SDS011;17573;55.922;37.540;2023-07-13T05:39:50;9.10;;;4.45;;
30862;SDS011;17573;55.922;37.540;2023-07-13T05:42:16;11.07;;;4.57;;
30862;SDS011;17573;55.922;37.540;2023-07-13T05:44:42;9.57;;;4.18;;
30862;SDS011;17573;55.922;37.540;2023-07-13T05:47:08;5.30;;;4.30;;
30862;SDS011;17573;55.922;37.540;2023-07-13T05:49:33;10.68;;;5.88;;
30862;SDS011;17573;55.922;37.540;2023-07-13T05:51:59;9.80;;;4.55;;
30862;SDS011;17573;55.922;37.540;2023-07-13T05:54:25;17.35;;;4.47;;
30862;SDS011;17573;55.922;37.540;2023-07-13T05:56:52;18.40;;;4.68;;
30862;SDS011;17573;55.922;37.540;2023-07-13T05:59:18;7.63;;;4.38;;
30862;SDS011;17573;55.922;37.540;2023-07-13T06:01:43;7.40;;;4.05;;
30862;SDS011;17573;55.922;37.540;2023-07-13T06:04:09;11.35;;;6.03;;
30862;SDS011;17573;55.922;37.540;2023-07-13T06:06:35;12.23;;;4.28;;
30862;SDS011;17573;55.922;37.540;2023-07-13T06:09:01;8.23;;;4.05;;
30862;SDS011;17573;55.922;37.540;2023-07-13T06:11:27;7.63;;;4.78;;
30862;SDS011;17573;55.922;37.540;2023-07-13T06:13:55;11.75;;;4.90;;
30862;SDS011;17573;55.922;37.540;2023-07-13T06:16:22;10.15;;;4.10;;
30862;SDS011;17573;55.922;37.540;2023-07-13T06:18:48;13.98;;;4.28;;
30862;SDS011;17573;55.922;37.540;2023-07-13T06:21:18;7.63;;;3.88;;
30862;SDS011;17573;55.922;37.540;2023-07-13T06:23:45;8.25;;;4.30;;
30862;SDS011;17573;55.922;37.540;2023-07-13T06:26:13;5.03;;;3.65;;
30862;SDS011;17573;55.922;37.540;2023-07-13T06:28:39;13.52;;;4.57;;
30862;SDS011;17573;55.922;37.540;2023-07-13T06:31:06;10.65;;;3.90;;
30862;SDS011;17573;55.922;37.540;2023-07-13T06:33:33;11.18;;;4.20;;
30862;SDS011;17573;55.922;37.540;2023-07-13T06:35:58;10.15;;;4.30;;
30862;SDS011;17573;55.922;37.540;2023-07-13T06:38:25;7.28;;;4.93;;
30862;SDS011;17573;55.922;37.540;2023-07-13T06:40:50;5.25;;;3.50;;
30862;SDS011;17573;55.922;37.540;2023-07-13T06:43:17;11.57;;;4.35;;
30862;SDS011;17573;55.922;37.540;2023-07-13T06:45:44;10.45;;;4.75;;
30862;SDS011;17573;55.922;37.540;2023-07-13T06:48:17;12.02;;;4.45;;
30862;SDS011;17573;55.922;37.540;2023-07-13T06:50:44;7.32;;;3.75;;
30862;SDS011;17573;55.922;37.540;2023-07-13T06:53:12;6.55;;;4.05;;
30862;SDS011;17573;55.922;37.540;2023-07-13T06:55:38;4.53;;;3.75;;
30862;SDS011;17573;55.922;37.540;2023-07-13T06:58:05;11.73;;;3.90;;
30862;SDS011;17573;55.922;37.540;2023-07-13T07:00:31;8.38;;;4.47;;
30862;SDS011;17573;55.922;37.540;2023-07-13T07:02:57;19.13;;;4.18;;
30862;SDS011;17573;55.922;37.540;2023-07-13T07:05:23;6.65;;;3.75;;
30862;SDS011;17573;55.922;37.540;2023-07-13T07:07:49;18.75;;;4.30;;
30862;SDS011;17573;55.922;37.540;2023-07-13T07:10:17;4.68;;;4.20;;
30862;SDS011;17573;55.922;37.540;2023-07-13T07:12:45;8.05;;;4.60;;
30862;SDS011;17573;55.922;37.540;2023-07-13T07:15:11;6.32;;;3.42;;
30862;SDS011;17573;55.922;37.540;2023-07-13T07:17:38;11.50;;;3.10;;
30862;SDS011;17573;55.922;37.540;2023-07-13T07:20:04;7.53;;;3.60;;
30862;SDS011;17573;55.922;37.540;2023-07-13T07:22:31;23.83;;;3.90;;
30862;SDS011;17573;55.922;37.540;2023-07-13T07:24:57;5.57;;;3.83;;
30862;SDS011;17573;55.922;37.540;2023-07-13T07:27:23;10.57;;;4.28;;
30862;SDS011;17573;55.922;37.540;2023-07-13T07:29:50;4.50;;;3.75;;
30862;SDS011;17573;55.922;37.540;2023-07-13T07:32:15;13.05;;;5.05;;
30862;SDS011;17573;55.922;37.540;2023-07-13T07:34:41;9.80;;;3.83;;
30862;SDS011;17573;55.922;37.540;2023-07-13T07:37:09;14.98;;;4.13;;
30862;SDS011;17573;55.922;37.540;2023-07-13T07:39:37;13.00;;;4.40;;
30862;SDS011;17573;55.922;37.540;2023-07-13T07:42:03;10.90;;;4.00;;
30862;SDS011;17573;55.922;37.540;2023-07-13T07:44:30;4.97;;;3.58;;
30862;SDS011;17573;55.922;37.540;2023-07-13T07:46:57;8.95;;;3.85;;
30862;SDS011;17573;55.922;37.540;2023-07-13T07:49:23;5.78;;;3.97;;
30862;SDS011;17573;55.922;37.540;2023-07-13T07:51:48;6.78;;;3.33;;
30862;SDS011;17573;55.922;37.540;2023-07-13T07:54:15;7.10;;;4.15;;
30862;SDS011;17573;55.922;37.540;2023-07-13T07:56:41;10.63;;;4.25;;
30862;SDS011;17573;55.922;37.540;2023-07-13T07:59:06;6.65;;;4.10;;
30862;SDS011;17573;55.922;37.540;2023-07-13T08:01:32;5.93;;;4.32;;
30862;SDS011;17573;55.922;37.540;2023-07-13T08:03:58;9.30;;;4.88;;
30862;SDS011;17573;55.922;37.540;2023-07-13T08:06:24;9.05;;;5.45;;
30862;SDS011;17573;55.922;37.540;2023-07-13T08:08:50;9.10;;;4.35;;
30862;SDS011;17573;55.922;37.540;2023-07-13T08:11:16;7.78;;;4.63;;
30862;SDS011;17573;55.922;37.540;2023-07-13T08:13:42;12.52;;;5.60;;
30862;SDS011;17573;55.922;37.540;2023-07-13T08:16:08;5.75;;;4.57;;
30862;SDS011;17573;55.922;37.540;2023-07-13T08:18:34;11.38;;;4.30;;
30862;SDS011;17573;55.922;37.540;2023-07-13T08:21:06;9.65;;;4.78;;
30862;SDS011;17573;55.922;37.540;2023-07-13T08:23:33;9.85;;;5.07;;
30862;SDS011;17573;55.922;37.540;2023-07-13T08:25:59;6.68;;;3.70;;
30862;SDS011;17573;55.922;37.540;2023-07-13T08:28:27;6.55;;;4.35;;
30862;SDS011;17573;55.922;37.540;2023-07-13T08:30:53;10.52;;;4.22;;
30862;SDS011;17573;55.922;37.540;2023-07-13T08:33:19;9.00;;;4.22;;
30862;SDS011;17573;55.922;37.540;2023-07-13T08:35:47;7.75;;;4.30;;
30862;SDS011;17573;55.922;37.540;2023-07-13T08:38:14;12.65;;;4.43;;
30862;SDS011;17573;55.922;37.540;2023-07-13T08:40:40;11.18;;;4.32;;
30862;SDS011;17573;55.922;37.540;2023-07-13T08:43:08;9.55;;;3.83;;
30862;SDS011;17573;55.922;37.540;2023-07-13T08:45:43;7.73;;;4.97;;
30862;SDS011;17573;55.922;37.540;2023-07-13T08:48:26;14.23;;;4.93;;
30862;SDS011;17573;55.922;37.540;2023-07-13T08:51:00;8.40;;;3.95;;
30862;SDS011;17573;55.922;37.540;2023-07-13T08:53:55;7.32;;;4.60;;
30862;SDS011;17573;55.922;37.540;2023-07-13T08:56:25;12.88;;;4.53;;
30862;SDS011;17573;55.922;37.540;2023-07-13T08:58:57;5.65;;;4.10;;
30862;SDS011;17573;55.922;37.540;2023-07-13T09:01:33;13.98;;;5.03;;
30862;SDS011;17573;55.922;37.540;2023-07-13T09:06:49;7.13;;;4.40;;
30862;SDS011;17573;55.922;37.540;2023-07-13T09:09:41;9.82;;;4.82;;
30862;SDS011;17573;55.922;37.540;2023-07-13T09:12:19;6.22;;;4.47;;
30862;SDS011;17573;55.922;37.540;2023-07-13T09:14:53;6.80;;;3.95;;
30862;SDS011;17573;55.922;37.540;2023-07-13T09:17:22;9.00;;;4.97;;
30862;SDS011;17573;55.922;37.540;2023-07-13T09:19:57;5.05;;;4.13;;
30862;SDS011;17573;55.922;37.540;2023-07-13T09:22:25;7.65;;;4.80;;
30862;SDS011;17573;55.922;37.540;2023-07-13T09:24:55;9.65;;;3.40;;
30862;SDS011;17573;55.922;37.540;2023-07-13T09:27:30;5.05;;;3.53;;
30862;SDS011;17573;55.922;37.540;2023-07-13T09:32:48;9.95;;;4.72;;
30862;SDS011;17573;55.922;37.540;2023-07-13T09:35:17;6.47;;;4.18;;
30862;SDS011;17573;55.922;37.540;2023-07-13T09:37:46;5.95;;;4.28;;
30862;SDS011;17573;55.922;37.540;2023-07-13T09:40:24;6.10;;;4.20;;
30862;SDS011;17573;55.922;37.540;2023-07-13T09:43:11;7.03;;;4.60;;
30862;SDS011;17573;55.922;37.540;2023-07-13T09:45:38;7.63;;;4.47;;
30862;SDS011;17573;55.922;37.540;2023-07-13T09:48:06;4.78;;;4.22;;
30862;SDS011;17573;55.922;37.540;2023-07-13T09:50:35;10.43;;;5.13;;
30862;SDS011;17573;55.922;37.540;2023-07-13T09:53:02;8.00;;;5.07;;
30862;SDS011;17573;55.922;37.540;2023-07-13T09:55:30;7.35;;;5.22;;
30862;SDS011;17573;55.922;37.540;2023-07-13T09:57:57;7.28;;;4.50;;
30862;SDS011;17573;55.922;37.540;2023-07-13T10:00:31;13.52;;;5.20;;
30862;SDS011;17573;55.922;37.540;2023-07-13T10:03:02;24.58;;;5.60;;
30862;SDS011;17573;55.922;37.540;2023-07-13T10:05:40;14.90;;;5.65;;
30862;SDS011;17573;55.922;37.540;2023-07-13T10:08:18;7.95;;;4.40;;
30862;SDS011;17573;55.922;37.540;2023-07-13T10:10:51;10.35;;;5.05;;
30862;SDS011;17573;55.922;37.540;2023-07-13T10:13:28;16.63;;;6.35;;
30862;SDS011;17573;55.922;37.540;2023-07-13T10:15:57;13.70;;;5.45;;
30862;SDS011;17573;55.922;37.540;2023-07-13T10:18:23;13.52;;;5.03;;
30862;SDS011;17573;55.922;37.540;2023-07-13T10:20:51;10.20;;;5.80;;
30862;SDS011;17573;55.922;37.540;2023-07-13T10:23:21;8.02;;;5.05;;
30862;SDS011;17573;55.922;37.540;2023-07-13T10:25:47;11.27;;;5.25;;
30862;SDS011;17573;55.922;37.540;2023-07-13T10:30:59;10.25;;;5.35;;
30862;SDS011;17573;55.922;37.540;2023-07-13T10:33:26;9.52;;;6.03;;
30862;SDS011;17573;55.922;37.540;2023-07-13T10:35:54;13.45;;;4.72;;
30862;SDS011;17573;55.922;37.540;2023-07-13T10:38:37;6.40;;;4.50;;
30862;SDS011;17573;55.922;37.540;2023-07-13T10:41:05;10.10;;;4.53;;
30862;SDS011;17573;55.922;37.540;2023-07-13T10:43:33;9.82;;;4.60;;
30862;SDS011;17573;55.922;37.540;2023-07-13T10:46:05;13.43;;;5.55;;
30862;SDS011;17573;55.922;37.540;2023-07-13T10:48:31;5.40;;;4.18;;
30862;SDS011;17573;55.922;37.540;2023-07-13T10:51:00;15.43;;;5.32;;
30862;SDS011;17573;55.922;37.540;2023-07-13T10:53:33;8.73;;;5.22;;
30862;SDS011;17573;55.922;37.540;2023-07-13T10:56:01;9.43;;;4.70;;
30862;SDS011;17573;55.922;37.540;2023-07-13T10:58:38;9.23;;;5.05;;
30862;SDS011;17573;55.922;37.540;2023-07-13T11:01:09;10.07;;;4.40;;
30862;SDS011;17573;55.922;37.540;2023-07-13T11:03:45;9.13;;;4.32;;
30862;SDS011;17573;55.922;37.540;2023-07-13T11:06:37;8.07;;;5.03;;
30862;SDS011;17573;55.922;37.540;2023-07-13T11:12:28;13.95;;;5.10;;
30862;SDS011;17573;55.922;37.540;2023-07-13T11:25:43;17.40;;;5.13;;
30862;SDS011;17573;55.922;37.540;2023-07-13T11:30:39;9.52;;;4.93;;
30862;SDS011;17573;55.922;37.540;2023-07-13T11:33:17;7.40;;;5.07;;
30862;SDS011;17573;55.922;37.540;2023-07-13T11:35:47;8.07;;;4.90;;
30862;SDS011;17573;55.922;37.540;2023-07-13T11:38:16;6.78;;;4.68;;
30862;SDS011;17573;55.922;37.540;2023-07-13T11:40:47;11.20;;;4.72;;
30862;SDS011;17573;55.922;37.540;2023-07-13T11:43:15;6.65;;;5.15;;
30862;SDS011;17573;55.922;37.540;2023-07-13T11:45:42;9.20;;;4.68;;
30862;SDS011;17573;55.922;37.540;2023-07-13T11:48:26;12.38;;;5.40;;
30862;SDS011;17573;55.922;37.540;2023-07-13T11:51:03;9.00;;;5.18;;
30862;SDS011;17573;55.922;37.540;2023-07-13T11:53:46;6.90;;;5.70;;
30862;SDS011;17573;55.922;37.540;2023-07-13T11:56:13;13.75;;;6.07;;
30862;SDS011;17573;55.922;37.540;2023-07-13T11:58:39;10.50;;;6.13;;
30862;SDS011;17573;55.922;37.540;2023-07-13T12:01:05;8.95;;;5.45;;
30862;SDS011;17573;55.922;37.540;2023-07-13T12:03:32;14.68;;;6.28;;
30862;SDS011;17573;55.922;37.540;2023-07-13T12:06:05;17.63;;;5.97;;
30862;SDS011;17573;55.922;37.540;2023-07-13T12:08:50;13.68;;;6.07;;
30862;SDS011;17573;55.922;37.540;2023-07-13T12:11:17;8.88;;;6.07;;
30862;SDS011;17573;55.922;37.540;2023-07-13T12:13:44;9.18;;;6.13;;
30862;SDS011;17573;55.922;37.540;2023-07-13T12:16:14;13.98;;;6.80;;
30862;SDS011;17573;55.922;37.540;2023-07-13T12:19:01;13.75;;;6.05;;
30862;SDS011;17573;55.922;37.540;2023-07-13T12:21:32;12.93;;;6.57;;
30862;SDS011;17573;55.922;37.540;2023-07-13T12:23:59;11.05;;;5.85;;
30862;SDS011;17573;55.922;37.540;2023-07-13T12:26:28;10.95;;;5.72;;
30862;SDS011;17573;55.922;37.540;2023-07-13T12:28:54;13.30;;;6.80;;
30862;SDS011;17573;55.922;37.540;2023-07-13T12:31:29;12.13;;;6.13;;
30862;SDS011;17573;55.922;37.540;2023-07-13T12:34:08;14.50;;;6.05;;
30862;SDS011;17573;55.922;37.540;2023-07-13T12:36:46;8.68;;;5.93;;
30862;SDS011;17573;55.922;37.540;2023-07-13T12:39:15;9.93;;;6.57;;
30862;SDS011;17573;55.922;37.540;2023-07-13T12:42:37;13.70;;;5.80;;
30862;SDS011;17573;55.922;37.540;2023-07-13T12:45:05;10.02;;;6.72;;
30862;SDS011;17573;55.922;37.540;2023-07-13T12:47:43;9.60;;;6.65;;
30862;SDS011;17573;55.922;37.540;2023-07-13T12:50:20;13.10;;;6.80;;
30862;SDS011;17573;55.922;37.540;2023-07-13T12:52:54;8.27;;;6.00;;
30862;SDS011;17573;55.922;37.540;2023-07-13T12:55:29;11.57;;;7.03;;
30862;SDS011;17573;55.922;37.540;2023-07-13T12:57:58;17.77;;;6.32;;
30862;SDS011;17573;55.922;37.540;2023-07-13T13:00:37;12.10;;;6.90;;
30862;SDS011;17573;55.922;37.540;2023-07-13T13:03:05;16.80;;;5.40;;
30862;SDS011;17573;55.922;37.540;2023-07-13T13:05:37;13.45;;;6.00;;
30862;SDS011;17573;55.922;37.540;2023-07-13T13:08:03;13.38;;;6.15;;
30862;SDS011;17573;55.922;37.540;2023-07-13T13:10:29;18.50;;;6.03;;
30862;SDS011;17573;55.922;37.540;2023-07-13T13:12:55;10.30;;;6.53;;
30862;SDS011;17573;55.922;37.540;2023-07-13T13:15:21;11.98;;;6.28;;
30862;SDS011;17573;55.922;37.540;2023-07-13T13:17:49;17.63;;;5.53;;
30862;SDS011;17573;55.922;37.540;2023-07-13T13:20:15;8.25;;;5.90;;
30862;SDS011;17573;55.922;37.540;2023-07-13T13:22:43;8.90;;;6.20;;
30862;SDS011;17573;55.922;37.540;2023-07-13T13:25:12;20.67;;;6.82;;
30862;SDS011;17573;55.922;37.540;2023-07-13T13:27:39;11.63;;;5.05;;
30862;SDS011;17573;55.922;37.540;2023-07-13T13:30:10;9.30;;;5.50;;
30862;SDS011;17573;55.922;37.540;2023-07-13T13:32:39;12.40;;;6.10;;
30862;SDS011;17573;55.922;37.540;2023-07-13T13:35:07;7.72;;;5.13;;
30862;SDS011;17573;55.922;37.540;2023-07-13T13:37:39;9.95;;;6.18;;
30862;SDS011;17573;55.922;37.540;2023-07-13T13:40:20;10.40;;;6.07;;
30862;SDS011;17573;55.922;37.540;2023-07-13T13:42:48;7.95;;;5.03;;
30862;SDS011;17573;55.922;37.540;2023-07-13T13:45:14;16.83;;;5.03;;
30862;SDS011;17573;55.922;37.540;2023-07-13T13:47:43;11.18;;;5.22;;
30862;SDS011;17573;55.922;37.540;2023-07-13T13:50:11;10.63;;;5.38;;
30862;SDS011;17573;55.922;37.540;2023-07-13T13:52:41;12.50;;;5.55;;
30862;SDS011;17573;55.922;37.540;2023-07-13T13:55:17;13.10;;;5.85;;
30862;SDS011;17573;55.922;37.540;2023-07-13T13:57:46;17.30;;;5.60;;
30862;SDS011;17573;55.922;37.540;2023-07-13T14:00:13;11.48;;;6.40;;
30862;SDS011;17573;55.922;37.540;2023-07-13T14:02:41;23.95;;;6.13;;
30862;SDS011;17573;55.922;37.540;2023-07-13T14:05:12;10.15;;;5.47;;
30862;SDS011;17573;55.922;37.540;2023-07-13T14:07:38;12.48;;;6.13;;
30862;SDS011;17573;55.922;37.540;2023-07-13T14:10:08;13.07;;;5.80;;
30862;SDS011;17573;55.922;37.540;2023-07-13T14:12:37;10.63;;;5.63;;
30862;SDS011;17573;55.922;37.540;2023-07-13T14:15:03;13.10;;;6.32;;
30862;SDS011;17573;55.922;37.540;2023-07-13T14:17:30;13.57;;;5.80;;
30862;SDS011;17573;55.922;37.540;2023-07-13T14:19:56;13.20;;;6.25;;
30862;SDS011;17573;55.922;37.540;2023-07-13T14:22:23;11.35;;;6.28;;
30862;SDS011;17573;55.922;37.540;2023-07-13T14:24:51;8.52;;;5.53;;
30862;SDS011;17573;55.922;37.540;2023-07-13T14:27:19;16.08;;;6.18;;
30862;SDS011;17573;55.922;37.540;2023-07-13T14:29:45;10.82;;;6.10;;
30862;SDS011;17573;55.922;37.540;2023-07-13T14:32:11;14.85;;;6.32;;
30862;SDS011;17573;55.922;37.540;2023-07-13T14:34:38;10.88;;;6.03;;
30862;SDS011;17573;55.922;37.540;2023-07-13T14:37:04;11.30;;;5.82;;
30862;SDS011;17573;55.922;37.540;2023-07-13T14:39:31;11.93;;;5.63;;
30862;SDS011;17573;55.922;37.540;2023-07-13T14:41:57;10.35;;;5.45;;
30862;SDS011;17573;55.922;37.540;2023-07-13T14:44:25;8.35;;;5.82;;
30862;SDS011;17573;55.922;37.540;2023-07-13T14:46:56;9.20;;;5.88;;
30862;SDS011;17573;55.922;37.540;2023-07-13T14:51:59;14.02;;;6.40;;
30862;SDS011;17573;55.922;37.540;2023-07-13T14:54:26;12.50;;;6.22;;
30862;SDS011;17573;55.922;37.540;2023-07-13T14:56:53;14.32;;;6.20;;
30862;SDS011;17573;55.922;37.540;2023-07-13T14:59:18;25.98;;;7.75;;
30862;SDS011;17573;55.922;37.540;2023-07-13T15:01:45;8.77;;;5.72;;
30862;SDS011;17573;55.922;37.540;2023-07-13T15:04:11;17.25;;;6.32;;
30862;SDS011;17573;55.922;37.540;2023-07-13T15:09:24;10.45;;;6.35;;